Time;durP1;ratioP1;P1;durP2;ratioP2;P2;SDS_P1;SDS_P2;PMS_P1;PMS_P2;Temp;Humidity;BMP_temperature;BMP_pressure;BME280_temperature;BME280_humidity;BME280_pressure;Samples;Min_cycle;Max_cycle;Signal;HPM_P1;HPM_P2
2022/06/09 00:01:27;;;;;;;4.70;2.80;;;;;;;;;;4994991;28;20224;-73
2022/06/09 00:04:03;;;;;;;3.60;2.80;;;;;;;;;;4986744;28;20196;-73
2022/06/09 00:06:41;;;;;;;4.83;3.00;;;;;;;;;;4998384;28;20566;-74
2022/06/09 00:09:09;;;;;;;4.07;2.77;;;;;;;;;;4984512;28;20571;-73
2022/06/09 00:11:39;;;;;;;4.40;2.70;;;;;;;;;;4992860;28;20230;-74
2022/06/09 00:14:08;;;;;;;4.30;2.93;;;;;;;;;;4992643;28;20191;-74
2022/06/09 00:16:35;;;;;;;3.67;3.07;;;;;;;;;;4987267;28;20275;-74
2022/06/09 00:19:02;;;;;;;3.20;2.70;;;;;;;;;;4987817;28;21633;-74
2022/06/09 00:21:28;;;;;;;4.20;3.17;;;;;;;;;;4991100;28;22103;-74
2022/06/09 00:23:54;;;;;;;4.40;3.33;;;;;;;;;;4993589;28;20700;-74
2022/06/09 00:26:20;;;;;;;3.53;2.93;;;;;;;;;;4998740;28;20187;-73
2022/06/09 00:28:47;;;;;;;6.67;2.97;;;;;;;;;;4990044;28;20190;-74
2022/06/09 00:31:13;;;;;;;4.33;3.10;;;;;;;;;;5018216;28;20207;-74
2022/06/09 00:33:39;;;;;;;3.23;2.90;;;;;;;;;;4992672;28;20201;-74
2022/06/09 00:36:05;;;;;;;3.30;2.83;;;;;;;;;;4993487;28;20184;-74
2022/06/09 00:38:31;;;;;;;5.63;3.60;;;;;;;;;;4994471;28;20184;-74
2022/06/09 00:40:59;;;;;;;4.07;3.40;;;;;;;;;;4998507;28;20940;-74
2022/06/09 00:43:26;;;;;;;3.97;3.20;;;;;;;;;;4992935;28;20187;-74
2022/06/09 00:46:21;;;;;;;4.17;3.60;;;;;;;;;;4998394;28;20216;-74
2022/06/09 00:48:53;;;;;;;3.53;3.17;;;;;;;;;;4980957;28;20195;-74
2022/06/09 00:51:22;;;;;;;3.93;3.03;;;;;;;;;;4990290;28;20216;-74
2022/06/09 00:53:50;;;;;;;3.53;3.10;;;;;;;;;;4996774;28;20183;-74
2022/06/09 00:56:16;;;;;;;4.40;3.13;;;;;;;;;;4974551;28;20208;-74
2022/06/09 00:58:45;;;;;;;4.10;3.07;;;19.60;99.90;;;;;;5000214;28;20246;-74
2022/06/09 01:01:15;;;;;;;6.63;3.67;;;17.20;99.90;;;;;;4987149;28;20216;-74
2022/06/09 01:03:46;;;;;;;4.97;3.43;;;17.10;99.90;;;;;;4995654;28;20684;-74
2022/06/09 01:06:18;;;;;;;5.60;3.50;;;17.00;99.90;;;;;;5000742;28;20213;-74
2022/06/09 01:08:50;;;;;;;5.30;4.00;;;17.10;99.90;;;;;;4998098;28;20254;-74
2022/06/09 01:11:16;;;;;;;5.50;3.37;;;17.10;99.90;;;;;;4992905;28;20211;-73
2022/06/09 01:13:43;;;;;;;3.67;3.37;;;17.10;99.90;;;;;;4996323;28;20213;-74
2022/06/09 01:16:22;;;;;;;4.20;3.03;;;17.10;99.90;;;;;;4996331;28;20211;-74
2022/06/09 01:18:54;;;;;;;7.13;3.47;;;17.00;99.90;;;;;;4994345;28;20195;-74
2022/06/09 01:21:54;;;;;;;5.13;3.20;;;17.00;99.90;;;;;;5002007;28;20233;-74
2022/06/09 01:24:34;;;;;;;3.97;3.57;;;16.90;99.90;;;;;;5012122;28;20183;-74
2022/06/09 01:27:32;;;;;;;6.47;3.47;;;16.90;99.90;;;;;;4993025;28;20314;-74
2022/06/09 01:30:14;;;;;;;5.50;3.97;;;16.80;99.90;;;;;;4992284;28;20719;-74
2022/06/09 01:32:51;;;;;;;5.80;3.43;;;16.80;99.90;;;;;;4989489;28;20227;-74
2022/06/09 01:35:41;;;;;;;4.70;4.20;;;16.70;99.90;;;;;;4997265;28;20192;-74
2022/06/09 01:38:07;;;;;;;5.13;3.77;;;16.60;99.90;;;;;;4995728;28;20197;-74
2022/06/09 01:40:33;;;;;;;5.20;4.10;;;16.60;99.90;;;;;;4998678;28;20208;-74
2022/06/09 01:43:00;;;;;;;4.43;3.53;;;16.60;99.90;;;;;;4999127;28;20207;-74
2022/06/09 01:45:48;;;;;;;4.07;3.57;;;16.50;99.90;;;;;;4994114;28;20183;-74
2022/06/09 01:48:17;;;;;;;5.10;3.43;;;16.50;99.90;;;;;;5006452;28;20195;-74
2022/06/09 01:51:08;;;;;;;3.90;3.47;;;16.50;99.90;;;;;;5002138;28;20195;-74
2022/06/09 01:53:42;;;;;;;6.57;3.93;;;16.40;99.90;;;;;;5002540;28;20199;-74
2022/06/09 01:56:20;;;;;;;4.70;3.70;;;16.50;99.90;;;;;;5011566;28;20194;-74
2022/06/09 01:59:00;;;;;;;5.47;3.97;;;16.50;99.90;;;;;;4999536;28;20196;-74
2022/06/09 02:01:31;;;;;;;4.87;3.57;;;16.50;99.90;;;;;;4994052;28;20223;-74
2022/06/09 02:04:00;;;;;;;6.23;4.23;;;16.50;99.90;;;;;;4997238;28;20260;-74
2022/06/09 02:06:27;;;;;;;4.77;3.63;;;16.50;99.90;;;;;;4997926;28;20548;-74
2022/06/09 02:08:54;;;;;;;5.33;4.17;;;16.50;99.90;;;;;;4999959;28;20263;-74
2022/06/09 02:11:21;;;;;;;4.63;3.83;;;16.40;99.90;;;;;;5004479;28;20196;-74
2022/06/09 02:13:50;;;;;;;6.50;4.50;;;16.40;99.90;;;;;;5006554;28;20185;-74
2022/06/09 02:16:19;;;;;;;5.13;4.00;;;16.30;99.90;;;;;;4999941;28;20237;-74
2022/06/09 02:18:47;;;;;;;4.03;3.63;;;16.30;99.90;;;;;;5000963;28;20649;-74
2022/06/09 02:21:30;;;;;;;4.97;4.00;;;16.20;99.90;;;;;;5002210;28;20216;-74
2022/06/09 02:23:56;;;;;;;4.90;4.40;;;16.20;99.90;;;;;;5002638;28;20207;-74
2022/06/09 02:26:22;;;;;;;4.50;3.90;;;16.20;99.90;;;;;;4999868;28;20202;-74
2022/06/09 02:28:48;;;;;;;6.57;4.70;;;16.30;99.90;;;;;;4999805;28;20176;-74
2022/06/09 02:31:15;;;;;;;4.97;4.50;;;16.30;99.90;;;;;;4998492;28;20220;-74
2022/06/09 02:33:41;;;;;;;4.60;4.10;;;16.30;99.90;;;;;;4999233;28;20199;-74
2022/06/09 02:36:06;;;;;;;5.17;4.10;;;16.30;99.90;;;;;;5016924;28;20581;-74
2022/06/09 02:38:32;;;;;;;6.73;4.10;;;16.20;99.90;;;;;;4996595;28;20251;-74
2022/06/09 02:40:58;;;;;;;5.03;4.07;;;16.20;99.90;;;;;;4999214;28;20214;-74
2022/06/09 02:43:25;;;;;;;5.47;4.37;;;16.20;99.90;;;;;;5000009;28;20646;-74
2022/06/09 02:45:50;;;;;;;4.93;4.10;;;16.20;99.90;;;;;;5001688;28;20178;-74
2022/06/09 02:48:18;;;;;;;7.60;4.30;;;16.20;99.90;;;;;;4992185;28;20181;-74
2022/06/09 02:50:46;;;;;;;5.70;4.37;;;16.20;99.90;;;;;;5001444;28;20215;-74
2022/06/09 02:53:13;;;;;;;6.17;4.20;;;16.30;99.90;;;;;;4998428;28;20230;-74
2022/06/09 02:55:39;;;;;;;6.10;4.80;;;;;;;;;;4993576;28;20243;-74
2022/06/09 02:58:06;;;;;;;4.40;3.90;;;;;;;;;;4993372;28;20184;-74
2022/06/09 03:00:32;;;;;;;4.40;4.00;;;;;;;;;;4997089;28;20212;-74
2022/06/09 03:03:00;;;;;;;5.33;4.20;;;;;;;;;;5001800;28;20215;-74
2022/06/09 03:05:27;;;;;;;4.97;3.70;;;;;;;;;;4991230;28;20184;-74
2022/06/09 03:07:53;;;;;;;3.77;3.20;;;;;;;;;;4996474;28;20574;-74
2022/06/09 03:10:19;;;;;;;4.70;3.70;;;;;;;;;;4991172;28;20640;-74
2022/06/09 03:12:45;;;;;;;4.87;3.47;;;;;;;;;;5007598;28;20195;-74
2022/06/09 03:15:12;;;;;;;3.53;3.20;;;;;;;;;;4995720;28;20270;-74
2022/06/09 03:17:38;;;;;;;4.83;3.00;;;;;;;;;;4993399;28;20187;-74
2022/06/09 03:20:06;;;;;;;5.20;3.00;;;;;;;;;;5009246;28;20208;-74
2022/06/09 03:22:32;;;;;;;4.40;3.20;;;;;;;;;;4993244;28;20212;-74
2022/06/09 03:24:59;;;;;;;4.80;2.80;;;;;;;;;;4994187;28;20184;-74
2022/06/09 03:27:25;;;;;;;4.90;3.40;;;;;;;;;;4993832;28;20242;-74
2022/06/09 03:29:51;;;;;;;5.20;3.10;;;;;;;;;;4994394;28;20203;-74
2022/06/09 03:32:17;;;;;;;4.03;3.43;;;;;;;;;;4991177;28;20685;-74
2022/06/09 03:34:44;;;;;;;3.57;2.77;;;;;;;;;;4995319;28;20206;-74
2022/06/09 03:37:10;;;;;;;3.67;3.00;;;;;;;;;;4993974;28;20179;-74
2022/06/09 03:39:37;;;;;;;3.90;2.77;;;16.30;99.90;;;;;;5012858;28;20198;-74
2022/06/09 03:42:03;;;;;;;3.33;2.50;;;16.40;99.90;;;;;;4996699;28;20207;-74
2022/06/09 03:44:29;;;;;;;3.57;2.70;;;16.30;99.90;;;;;;4993304;28;20282;-74
2022/06/09 03:46:55;;;;;;;4.20;2.77;;;16.30;99.90;;;;;;5014525;28;20694;-74
2022/06/09 03:49:21;;;;;;;4.20;2.90;;;16.30;99.90;;;;;;4994200;28;20335;-74
2022/06/09 03:51:47;;;;;;;5.90;3.47;;;16.30;99.90;;;;;;4996050;28;20180;-74
2022/06/09 03:54:14;;;;;;;5.20;3.20;;;16.30;99.90;;;;;;4999611;28;20342;-74
2022/06/09 03:56:40;;;;;;;4.73;2.90;;;16.40;99.90;;;;;;4997304;28;20306;-74
2022/06/09 03:59:06;;;;;;;6.10;3.30;;;16.30;99.90;;;;;;4996547;28;20188;-74
2022/06/09 04:01:32;;;;;;;5.57;3.23;;;16.40;99.90;;;;;;4991228;28;20238;-74
2022/06/09 04:03:58;;;;;;;3.50;3.13;;;16.30;99.90;;;;;;4984459;28;20191;-74
2022/06/09 04:06:25;;;;;;;3.70;3.37;;;16.30;99.90;;;;;;4994300;28;20200;-74
2022/06/09 04:08:52;;;;;;;5.17;3.10;;;16.30;99.90;;;;;;4986562;28;20190;-74
2022/06/09 04:11:19;;;;;;;4.37;3.13;;;16.30;99.90;;;;;;4987195;28;20200;-74
2022/06/09 04:13:45;;;;;;;6.10;3.47;;;16.30;99.90;;;;;;4991166;28;20206;-74
2022/06/09 04:16:27;;;;;;;5.27;3.70;;;16.30;99.90;;;;;;4988347;28;20653;-74
2022/06/09 04:18:55;;;;;;;5.57;3.47;;;16.30;99.90;;;;;;5002313;28;20188;-74
2022/06/09 04:21:22;;;;;;;4.77;2.90;;;16.30;99.90;;;;;;4987096;28;20253;-74
2022/06/09 04:23:48;;;;;;;5.80;3.43;;;16.40;99.90;;;;;;4992997;28;20184;-74
2022/06/09 04:26:17;;;;;;;5.43;3.10;;;16.40;99.90;;;;;;4997181;28;20186;-74
2022/06/09 04:28:44;;;;;;;3.97;2.77;;;16.40;99.90;;;;;;4995431;28;20176;-74
2022/06/09 04:31:11;;;;;;;6.17;2.80;;;16.40;99.90;;;;;;5005475;28;20211;-74
2022/06/09 04:33:37;;;;;;;6.30;2.80;;;16.50;99.90;;;;;;4993587;28;20229;-75
2022/06/09 04:36:04;;;;;;;4.27;2.43;;;16.50;99.90;;;;;;4996052;28;20561;-76
2022/06/09 04:38:30;;;;;;;6.50;3.00;;;16.50;99.90;;;;;;4992409;28;20180;-74
2022/06/09 04:40:56;;;;;;;5.13;2.70;;;16.50;99.90;;;;;;4996131;28;20199;-74
2022/06/09 04:43:22;;;;;;;5.37;2.73;;;16.50;99.90;;;;;;5006025;28;20275;-74
2022/06/09 04:45:48;;;;;;;5.83;2.60;;;16.50;99.90;;;;;;4990548;28;20199;-76
2022/06/09 04:48:14;;;;;;;4.83;2.70;;;16.50;99.90;;;;;;4986402;28;20188;-76
2022/06/09 04:50:42;;;;;;;5.27;2.53;;;16.40;99.90;;;;;;4989525;28;20602;-76
2022/06/09 04:53:09;;;;;;;7.07;3.33;;;16.40;99.90;;;;;;4997900;28;20210;-77
2022/06/09 04:55:36;;;;;;;4.27;3.17;;;16.50;99.90;;;;;;4989467;28;20200;-76
2022/06/09 04:58:02;;;;;;;4.63;3.43;;;16.40;99.90;;;;;;5013363;28;20259;-76
2022/06/09 05:00:29;;;;;;;5.17;3.40;;;16.40;99.90;;;;;;4992095;28;20291;-75
2022/06/09 05:02:56;;;;;;;5.70;3.67;;;16.30;99.90;;;;;;4992685;28;20215;-76
2022/06/09 05:05:33;;;;;;;4.27;3.57;;;16.20;99.90;;;;;;4994970;28;20274;-76
2022/06/09 05:07:59;;;;;;;3.80;3.20;;;16.20;99.90;;;;;;4994660;28;20175;-75
2022/06/09 05:10:27;;;;;;;6.80;3.37;;;16.20;99.90;;;;;;5008747;28;20238;-76
2022/06/09 05:12:53;;;;;;;6.17;3.53;;;16.20;99.90;;;;;;4997025;28;20211;-76
2022/06/09 05:15:21;;;;;;;6.57;3.53;;;16.30;99.90;;;;;;4988392;28;20191;-76
2022/06/09 05:17:49;;;;;;;5.90;3.70;;;16.40;99.90;;;;;;4994309;28;20938;-74
2022/06/09 05:20:18;;;;;;;4.40;3.23;;;16.40;99.90;;;;;;4995056;28;20207;-75
2022/06/09 05:22:44;;;;;;;3.73;3.30;;;16.50;99.90;;;;;;4991188;28;20242;-77
2022/06/09 05:25:11;;;;;;;6.73;3.70;;;16.60;99.90;;;;;;4998437;28;20636;-77
2022/06/09 05:27:37;;;;;;;4.93;3.50;;;16.60;99.90;;;;;;4998064;28;20259;-77
2022/06/09 05:30:08;;;;;;;3.77;3.40;;;16.60;99.90;;;;;;4991238;28;20203;-76
2022/06/09 05:32:34;;;;;;;5.07;3.20;;;16.70;99.90;;;;;;5005977;28;20191;-76
2022/06/09 05:35:00;;;;;;;3.30;3.00;;;16.80;99.90;;;;;;4989149;28;20274;-76
2022/06/09 05:44:50;;;;;;;5.50;3.33;;;16.90;99.90;;;;;;4986530;28;20661;-77
2022/06/09 05:45:40;;;;;;;5.07;3.30;;;16.90;99.90;;;;;;4994987;28;20237;-76
2022/06/09 05:48:06;;;;;;;5.50;3.30;;;16.90;99.90;;;;;;5006275;28;20184;-76
2022/06/09 05:50:32;;;;;;;6.27;2.90;;;16.80;99.90;;;;;;4995008;28;20210;-73
2022/06/09 05:52:58;;;;;;;3.30;2.50;;;16.70;99.90;;;;;;4993659;28;20259;-74
2022/06/09 05:55:23;;;;;;;5.07;3.00;;;16.70;99.90;;;;;;4992808;28;20184;-75
2022/06/09 05:57:49;;;;;;;4.57;2.87;;;16.80;99.90;;;;;;4989791;28;20260;-75
2022/06/09 06:00:15;;;;;;;6.20;2.70;;;16.80;99.90;;;;;;5009433;28;20227;-73
2022/06/09 06:02:41;;;;;;;4.27;2.30;;;16.90;99.90;;;;;;5004264;28;20751;-75
2022/06/09 06:06:33;;;;;;;4.07;2.50;;;16.80;99.90;;;;;;4992536;28;20185;-74
2022/06/09 06:07:53;;;;;;;4.20;2.60;;;16.90;99.90;;;;;;4997931;28;20669;-74
2022/06/09 06:10:18;;;;;;;6.80;2.70;;;17.00;99.90;;;;;;4995098;28;20200;-73
2022/06/09 06:12:44;;;;;;;4.20;2.50;;;17.00;99.90;;;;;;5000723;28;20188;-75
2022/06/09 06:15:10;;;;;;;6.07;2.50;;;17.10;99.90;;;;;;4996369;28;20725;-75
2022/06/09 06:17:36;;;;;;;5.23;2.60;;;17.20;99.90;;;;;;5014443;28;20190;-74
2022/06/09 06:20:02;;;;;;;7.33;2.60;;;17.20;99.90;;;;;;4998371;28;20211;-75
2022/06/09 06:22:31;;;;;;;6.40;2.20;;;17.30;99.90;;;;;;4997321;28;20204;-75
2022/06/09 06:24:59;;;;;;;6.07;2.63;;;17.40;99.90;;;;;;5002042;28;20206;-73
2022/06/09 06:27:26;;;;;;;5.17;2.10;;;;;;;;;;4992305;28;20601;-74
2022/06/09 06:29:52;;;;;;;4.07;2.17;;;;;;;;;;5007576;28;20214;-75
2022/06/09 06:32:18;;;;;;;4.70;2.47;;;;;;;;;;4992621;28;20199;-75
2022/06/09 06:34:44;;;;;;;6.47;2.30;;;;;;;;;;4995233;28;20195;-73
2022/06/09 06:37:11;;;;;;;6.13;2.40;;;;;;;;;;4994456;28;20188;-73
2022/06/09 06:39:37;;;;;;;4.93;2.50;;;;;;;;;;4989290;28;20645;-74
2022/06/09 06:42:03;;;;;;;8.97;2.60;;;;;;;;;;4994837;28;20207;-75
2022/06/09 06:44:35;;;;;;;6.13;2.47;;;;;;;;;;4997178;28;20641;-74
2022/06/09 06:47:01;;;;;;;7.47;2.67;;;;;;;;;;4994884;28;20708;-74
2022/06/09 06:49:27;;;;;;;6.40;2.70;;;;;;;;;;4976447;28;20189;-75
2022/06/09 06:51:54;;;;;;;9.93;2.53;;;;;;;;;;4979908;28;20194;-75
2022/06/09 06:54:20;;;;;;;4.97;2.23;;;;;;;;;;4997063;28;20203;-75
2022/06/09 06:56:46;;;;;;;6.90;2.00;;;;;;;;;;5007953;28;20232;-75
2022/06/09 06:59:12;;;;;;;8.43;2.60;;;;;;;;;;4998647;28;20261;-75
2022/06/09 07:01:38;;;;;;;7.93;2.40;;;;;;;;;;4993443;28;20581;-75
2022/06/09 07:04:05;;;;;;;9.90;2.50;;;;;;;;;;4990714;28;20844;-72
2022/06/09 07:06:31;;;;;;;5.63;2.27;;;;;;;;;;5001903;28;20282;-72
2022/06/09 07:08:57;;;;;;;6.03;2.20;;;;;;;;;;4988297;28;20595;-71
2022/06/09 07:11:23;;;;;;;6.23;2.60;;;;;;;;;;4986695;28;20239;-72
2022/06/09 07:13:50;;;;;;;4.20;1.90;;;;;;;;;;4984624;28;20198;-72
2022/06/09 07:16:16;;;;;;;5.50;2.20;;;;;;;;;;4985552;28;20246;-74
2022/06/09 07:18:42;;;;;;;7.33;2.10;;;;;;;;;;4981373;28;20292;-75
2022/06/09 07:21:10;;;;;;;8.03;2.60;;;;;;;;;;4986265;28;20689;-75
2022/06/09 07:23:36;;;;;;;6.27;2.10;;;;;;;;;;5003549;28;20273;-75
2022/06/09 07:26:03;;;;;;;5.07;1.87;;;;;;;;;;4986095;28;20672;-72
2022/06/09 07:28:29;;;;;;;6.17;2.10;;;;;;;;;;4995145;28;20184;-74
2022/06/09 07:30:56;;;;;;;5.37;1.90;;;;;;;;;;4985371;28;20615;-72
2022/06/09 07:33:24;;;;;;;5.20;1.87;;;;;;;;;;4982856;28;20192;-75
2022/06/09 07:35:52;;;;;;;4.83;2.03;;;;;;;;;;4988012;28;20274;-74
2022/06/09 07:38:18;;;;;;;5.87;2.10;;;;;;;;;;4987343;28;20188;-75
2022/06/09 07:40:45;;;;;;;7.87;2.00;;;;;;;;;;4987151;28;20212;-74
2022/06/09 07:43:11;;;;;;;5.90;1.77;;;;;;;;;;4989793;28;20219;-75
2022/06/09 07:45:38;;;;;;;6.27;2.10;;;;;;;;;;4988584;28;20184;-71
2022/06/09 07:48:05;;;;;;;6.53;1.90;;;;;;;;;;4989333;28;20241;-72
2022/06/09 07:50:32;;;;;;;4.63;2.07;;;;;;;;;;4987134;28;20211;-74
2022/06/09 07:52:59;;;;;;;5.20;2.10;;;;;;;;;;4985813;28;20231;-75
2022/06/09 07:55:26;;;;;;;7.33;2.10;;;;;;;;;;5002553;28;20196;-75
2022/06/09 07:57:52;;;;;;;5.00;2.20;;;;;;;;;;4992323;28;20294;-75
2022/06/09 08:00:19;;;;;;;6.43;2.07;;;;;;;;;;4986729;28;20211;-75
2022/06/09 08:02:46;;;;;;;5.40;2.07;;;;;;;;;;5002698;28;20855;-75
2022/06/09 08:05:13;;;;;;;8.23;2.10;;;;;;;;;;4984904;28;20229;-71
2022/06/09 08:07:39;;;;;;;4.63;1.80;;;;;;;;;;4989682;28;20184;-74
2022/06/09 08:10:06;;;;;;;4.47;1.70;;;;;;;;;;4985304;28;20971;-73
2022/06/09 08:12:33;;;;;;;6.10;1.80;;;;;;;;;;4988035;28;20214;-74
2022/06/09 08:14:59;;;;;;;6.33;2.00;;;;;;;;;;4994715;28;20195;-73
2022/06/09 08:17:25;;;;;;;7.20;2.07;;;;;;;;;;4981114;28;20195;-74
2022/06/09 08:19:52;;;;;;;5.37;1.90;;;;;;;;;;4986890;28;20290;-73
2022/06/09 08:22:18;;;;;;;4.73;2.20;;;;;;;;;;4987770;28;20681;-75
2022/06/09 08:24:46;;;;;;;5.53;2.00;;;;;;;;;;4987799;28;20200;-75
2022/06/09 08:27:12;;;;;;;5.03;1.90;;;;;;;;;;5003679;28;20201;-75
2022/06/09 08:29:38;;;;;;;6.67;2.20;;;;;;;;;;4989954;28;20176;-75
2022/06/09 08:32:05;;;;;;;7.67;2.17;;;;;;;;;;4994309;28;20175;-78
2022/06/09 08:34:31;;;;;;;4.47;2.03;;;;;;;;;;4994959;28;20187;-76
2022/06/09 08:36:58;;;;;;;5.97;2.30;;;;;;;;;;4989420;28;20282;-75
2022/06/09 08:39:24;;;;;;;4.53;1.90;;;;;;;;;;4993174;28;20187;-72
2022/06/09 08:42:20;;;;;;;5.77;2.20;;;;;;;;;;4990708;28;20215;-75
2022/06/09 08:44:55;;;;;;;7.10;2.10;;;;;;;;;;4988004;28;20704;-75
2022/06/09 08:47:29;;;;;;;7.53;2.00;;;;;;;;;;4981643;28;20183;-73
2022/06/09 08:50:00;;;;;;;8.13;2.27;;;;;;;;;;4988759;28;20226;-76
2022/06/09 08:52:45;;;;;;;6.87;1.97;;;;;;;;;;4992124;28;20202;-75
2022/06/09 08:55:30;;;;;;;5.43;1.93;;;;;;;;;;4991223;28;20502;-75
2022/06/09 08:58:01;;;;;;;6.63;1.87;;;;;;;;;;4982994;28;20208;-77
2022/06/09 09:00:30;;;;;;;5.50;1.80;;;;;;;;;;4986554;28;20216;-75
2022/06/09 09:03:01;;;;;;;4.50;1.93;;;;;;;;;;4984619;28;20208;-76
2022/06/09 09:05:40;;;;;;;5.07;1.77;;;;;;;;;;4986214;28;20184;-76
2022/06/09 09:08:07;;;;;;;5.03;1.90;;;;;;;;;;4986867;28;20187;-74
2022/06/09 09:10:57;;;;;;;4.67;1.80;;;;;;;;;;4986905;28;20203;-75
2022/06/09 09:13:30;;;;;;;4.93;2.00;;;;;;;;;;4987059;28;20192;-76
2022/06/09 09:15:59;;;;;;;8.30;2.20;;;;;;;;;;4998455;28;20191;-76
2022/06/09 09:18:28;;;;;;;3.80;1.77;;;;;;;;;;4988271;28;20673;-74
2022/06/09 09:21:01;;;;;;;5.83;2.13;;;;;;;;;;4986735;28;20745;-76
2022/06/09 09:23:33;;;;;;;7.23;2.20;;;;;;;;;;4984684;28;20673;-75
2022/06/09 09:26:18;;;;;;;8.93;2.40;;;;;;;;;;4984551;28;20188;-76
2022/06/09 09:28:50;;;;;;;4.63;2.20;;;;;;;;;;5002247;28;20567;-76
2022/06/09 09:31:36;;;;;;;6.07;2.27;;;;;;;;;;4984111;28;20224;-75
2022/06/09 09:34:04;;;;;;;5.10;1.97;;;;;;;;;;4990983;28;20180;-75
2022/06/09 09:36:35;;;;;;;6.73;2.30;;;;;;;;;;4989523;28;20257;-75
2022/06/09 09:39:22;;;;;;;4.93;2.10;;;;;;;;;;4990018;28;20229;-76
2022/06/09 09:41:49;;;;;;;6.37;2.27;;;;;;;;;;4991459;28;20225;-76
2022/06/09 09:44:27;;;;;;;6.60;2.47;;;;;;;;;;4993274;28;20180;-75
2022/06/09 09:46:58;;;;;;;7.40;2.53;;;;;;;;;;4987606;28;20190;-75
2022/06/09 09:49:26;;;;;;;4.27;2.20;;;;;;;;;;4997476;28;20198;-75
2022/06/09 09:51:53;;;;;;;6.13;2.53;;;;;;;;;;5004407;28;20198;-76
2022/06/09 09:54:24;;;;;;;6.63;2.43;;;;;;;;;;4988478;28;20200;-76
2022/06/09 09:57:06;;;;;;;6.60;2.27;;;;;;;;;;4988744;28;20605;-74
2022/06/09 09:59:47;;;;;;;4.83;2.00;;;;;;;;;;4991440;28;20215;-75
2022/06/09 10:08:41;;;;;;;6.17;2.10;;;;;;;;;;4999125;28;20180;-81
2022/06/09 10:13:58;;;;;;;4.80;1.90;;;;;;;;;;5008746;28;20179;-82
2022/06/09 10:16:27;;;;;;;5.10;2.00;;;;;;;;;;4988800;28;20198;-77
2022/06/09 10:18:55;;;;;;;5.13;1.90;;;;;;;;;;4997944;28;20180;-82
2022/06/09 10:21:25;;;;;;;4.97;2.10;;;;;;;;;;5012662;28;21754;-81
2022/06/09 10:24:05;;;;;;;7.97;2.50;;;;;;;;;;4999979;28;20761;-82
2022/06/09 10:26:40;;;;;;;6.23;2.27;;;;;;;;;;4997660;28;20199;-82
2022/06/09 10:29:18;;;;;;;4.87;2.33;;;;;;;;;;4998820;28;20183;-82
2022/06/09 10:32:02;;;;;;;6.73;2.40;;;;;;;;;;4999381;28;20618;-81
2022/06/09 10:34:50;;;;;;;5.43;1.97;;;;;;;;;;4998608;28;20877;-81
2022/06/09 10:37:28;;;;;;;7.17;2.20;;;;;;;;;;5011805;28;20191;-82
2022/06/09 10:40:03;;;;;;;4.63;2.10;;;;;;;;;;4997597;28;20249;-79
2022/06/09 10:42:54;;;;;;;6.63;2.23;;;;;;;;;;4982696;28;20215;-82
2022/06/09 10:45:33;;;;;;;6.27;2.03;;;;;;;;;;5004933;28;20667;-79
2022/06/09 10:57:02;;;;;;;5.10;2.30;;;;;;;;;;4993859;28;20254;-79
2022/06/09 10:59:37;;;;;;;9.20;2.30;;;;;;;;;;5015611;28;20224;-79
2022/06/09 11:02:10;;;;;;;8.40;2.30;;;;;;;;;;5003782;28;20199;-79
2022/06/09 11:04:37;;;;;;;5.40;2.00;;;;;;;;;;5008900;28;20198;-79
2022/06/09 11:07:13;;;;;;;6.87;2.10;;;;;;;;;;4997949;28;20647;-80
2022/06/09 11:09:39;;;;;;;4.90;2.00;;;;;;;;;;5021923;28;20190;-80
2022/06/09 11:12:17;;;;;;;4.30;1.70;;;;;;;;;;5004942;28;20566;-81
2022/06/09 11:14:50;;;;;;;6.23;2.10;;;;;;;;;;4995541;28;20183;-81
2022/06/09 11:17:35;;;;;;;3.17;1.73;;;;;;;;;;5003672;28;20223;-79
2022/06/09 11:20:04;;;;;;;4.27;2.07;;;;;;;;;;4995926;28;20214;-78
2022/06/09 11:22:39;;;;;;;4.73;2.10;;;;;;;;;;5001632;28;20217;-83
2022/06/09 11:25:09;;;;;;;6.20;2.17;;;;;;;;;;5001737;28;20179;-78
2022/06/09 11:27:43;;;;;;;5.27;2.13;;;;;;;;;;5013706;28;20184;-78
2022/06/09 11:30:09;;;;;;;7.30;2.13;;;;;;;;;;4997871;28;20212;-77
2022/06/09 11:32:40;;;;;;;5.13;1.87;;;;;;;;;;5005602;28;20242;-77
2022/06/09 11:35:16;;;;;;;7.53;2.07;;;;;;;;;;4992004;28;20176;-78
2022/06/09 11:37:48;;;;;;;6.63;2.00;;;;;;;;;;4989668;28;20214;-78
2022/06/09 11:40:33;;;;;;;6.07;2.30;;;;;;;;;;4998162;28;20204;-77
2022/06/09 11:43:11;;;;;;;4.90;1.60;;;;;;;;;;5002316;28;20247;-77
2022/06/09 11:45:53;;;;;;;6.63;1.90;;;;;;;;;;4992909;28;20191;-75
2022/06/09 11:48:23;;;;;;;4.40;1.90;;;;;;;;;;5011774;28;20202;-78
2022/06/09 11:50:50;;;;;;;3.33;1.73;;;;;;;;;;4993388;28;20215;-80
2022/06/09 11:53:18;;;;;;;4.63;1.63;;;;;;;;;;5009774;28;20209;-80
2022/06/09 11:58:44;;;;;;;5.73;1.60;;;;;;;;;;4982748;28;20199;-76
2022/06/09 12:01:16;;;;;;;6.17;1.70;;;;;;;;;;4991359;28;20318;-79
2022/06/09 12:03:43;;;;;;;3.37;1.80;;;;;;;;;;5001841;28;20204;-80
2022/06/09 12:06:15;;;;;;;5.07;1.60;;;;;;;;;;5004245;28;20186;-80
2022/06/09 12:08:44;;;;;;;3.80;1.70;;;;;;;;;;4999291;28;20594;-80
2022/06/09 12:11:11;;;;;;;3.10;1.70;;;;;;;;;;4994042;28;20203;-78
2022/06/09 12:13:38;;;;;;;3.50;1.70;;;;;;;;;;4998260;28;20199;-78
2022/06/09 12:16:23;;;;;;;5.03;1.87;;;;;;;;;;4991972;28;20214;-80
2022/06/09 12:18:58;;;;;;;3.77;1.60;;;;;;;;;;4991398;28;20227;-80
2022/06/09 12:21:28;;;;;;;4.13;1.50;;;;;;;;;;4990660;28;20707;-79
2022/06/09 12:23:55;;;;;;;5.50;1.80;;;;;;;;;;4988637;28;20230;-80
2022/06/09 12:26:39;;;;;;;4.53;2.00;;;;;;;;;;4997306;28;20203;-80
2022/06/09 12:29:18;;;;;;;4.07;1.70;;;;;;;;;;4989103;28;20707;-80
2022/06/09 12:32:04;;;;;;;4.97;1.90;;;;;;;;;;5007941;28;20204;-79
2022/06/09 12:34:30;;;;;;;3.83;1.50;;;;;;;;;;4979700;28;20277;-80
2022/06/09 12:37:00;;;;;;;3.83;1.80;;;;;;;;;;4992107;28;20188;-79
2022/06/09 12:39:28;;;;;;;4.20;1.70;;;;;;;;;;4991515;28;20266;-79
2022/06/09 12:41:56;;;;;;;3.30;1.70;;;;;;;;;;4992955;28;20220;-80
2022/06/09 12:44:25;;;;;;;3.53;1.77;;;;;;;;;;4988753;28;20266;-78
2022/06/09 12:46:57;;;;;;;3.03;1.57;;;;;;;;;;4997850;28;20575;-79
2022/06/09 12:49:25;;;;;;;5.40;1.50;;;;;;;;;;4990344;28;20246;-79
2022/06/09 12:51:51;;;;;;;2.10;1.30;;;;;;;;;;4995258;28;20282;-79
2022/06/09 12:54:22;;;;;;;2.97;1.50;;;;;;;;;;4991890;28;20793;-79
2022/06/09 12:57:19;;;;;;;3.17;1.60;;;;;;;;;;4991832;28;20209;-79
2022/06/09 12:59:45;;;;;;;4.63;1.43;;;;;;;;;;4980654;28;20655;-74
2022/06/09 13:02:11;;;;;;;2.43;1.50;;;;;;;;;;4989840;28;20626;-76
2022/06/09 13:04:43;;;;;;;4.40;1.87;;;;;;;;;;4996900;28;20192;-76
2022/06/09 13:07:39;;;;;;;4.00;1.73;;;;;;;;;;4993584;28;20598;-76
2022/06/09 13:10:08;;;;;;;3.33;1.80;;;;;;;;;;4994729;28;20207;-77
2022/06/09 13:12:50;;;;;;;5.57;1.90;;;;;;;;;;4994550;28;20257;-78
2022/06/09 13:15:35;;;;;;;5.27;1.83;;;;;;;;;;4997996;28;20194;-77
2022/06/09 13:18:13;;;;;;;3.40;1.57;;;;;;;;;;5004164;28;20192;-77
2022/06/09 13:20:41;;;;;;;5.37;1.70;;;;;;;;;;4996559;28;20334;-77
2022/06/09 13:23:08;;;;;;;6.27;1.90;;;;;;;;;;4998504;28;20227;-76
2022/06/09 13:25:34;;;;;;;3.17;1.77;;;;;;;;;;4993467;28;20202;-77
2022/06/09 13:28:00;;;;;;;4.70;1.70;;;;;;;;;;4999785;28;20625;-77
2022/06/09 13:30:30;;;;;;;5.17;1.97;;;;;;;;;;4991595;28;20236;-77
2022/06/09 13:32:56;;;;;;;5.53;1.97;;;;;;;;;;4991655;28;20261;-77
2022/06/09 13:35:28;;;;;;;3.87;1.90;;;;;;;;;;4989159;28;20925;-78
2022/06/09 13:38:13;;;;;;;4.33;1.90;;;;;;;;;;4988717;28;20188;-75
2022/06/09 13:40:42;;;;;;;5.47;1.90;;;;;;;;;;4979929;28;20215;-76
2022/06/09 13:43:14;;;;;;;3.53;1.80;;;;;;;;;;4987555;28;20203;-77
2022/06/09 13:45:40;;;;;;;4.00;1.77;;;;;;;;;;4981035;28;20214;-74
2022/06/09 13:48:18;;;;;;;4.47;1.77;;;;;;;;;;4985017;28;20180;-77
2022/06/09 13:50:49;;;;;;;5.73;1.70;;;;;;;;;;4984539;28;20238;-76
2022/06/09 13:53:22;;;;;;;2.80;1.70;;;;;;;;;;4984656;28;20184;-77
2022/06/09 13:55:48;;;;;;;4.00;1.73;;;;;;;;;;4986063;28;20303;-77
2022/06/09 13:58:15;;;;;;;4.10;1.57;;;;;;;;;;4986177;28;20647;-75
2022/06/09 14:00:43;;;;;;;3.50;1.70;;;;;;;;;;4987356;28;20203;-77
2022/06/09 14:03:18;;;;;;;3.67;1.50;;;;;;;;;;4986708;28;20251;-77
2022/06/09 14:05:49;;;;;;;4.77;2.00;;;;;;;;;;4984897;28;20183;-75
2022/06/09 14:08:15;;;;;;;7.17;2.17;;;;;;;;;;4983333;28;20212;-77
2022/06/09 14:10:42;;;;;;;3.43;1.70;;;;;;;;;;4984695;28;20242;-77
2022/06/09 14:13:08;;;;;;;5.80;1.80;;;;;;;;;;4976235;28;21282;-73
2022/06/09 14:15:35;;;;;;;3.70;1.63;;;;;;;;;;4983685;28;20275;-77
2022/06/09 14:18:01;;;;;;;6.13;1.90;;;;;;;;;;4983160;28;20192;-75
2022/06/09 14:20:30;;;;;;;4.03;1.70;;;;;;;;;;4988123;28;20584;-74
2022/06/09 14:22:57;;;;;;;4.50;1.80;;;;;;;;;;4991311;28;20207;-77
2022/06/09 14:25:24;;;;;;;4.87;1.60;;;;;;;;;;4988373;28;20607;-75
2022/06/09 14:27:51;;;;;;;3.90;1.33;;;;;;;;;;4987365;28;20857;-77
2022/06/09 14:30:18;;;;;;;3.47;1.60;;;;;;;;;;4986424;28;20295;-77
2022/06/09 14:32:45;;;;;;;2.67;1.37;;;;;;;;;;4989970;28;20199;-77
2022/06/09 14:35:16;;;;;;;5.10;1.60;;;;;;;;;;4990351;28;20192;-79
2022/06/09 14:37:46;;;;;;;6.10;1.80;;;;;;;;;;4992050;28;20229;-77
2022/06/09 14:40:24;;;;;;;4.20;1.50;;;;;;;;;;4988833;28;20225;-77
2022/06/09 14:42:50;;;;;;;3.37;1.77;;;;;;;;;;4985932;28;20214;-77
2022/06/09 14:45:17;;;;;;;3.77;1.53;;;;;;;;;;4986723;28;20197;-77